createdAt,value
2023-01-23T00:00:47.442Z,7.73
2023-01-23T00:03:21.151Z,8.82
2023-01-23T00:05:56.884Z,9.51
2023-01-23T00:08:25.645Z,10.02
2023-01-23T00:10:53.341Z,10.37
2023-01-23T00:13:21.296Z,10.22
2023-01-23T00:15:50.150Z,9.03
2023-01-23T00:18:18.161Z,7.83
2023-01-23T00:20:45.927Z,7.18
2023-01-23T00:23:14.508Z,8.00
2023-01-23T00:25:42.569Z,8.98
2023-01-23T00:28:10.646Z,9.53
2023-01-23T00:30:39.962Z,9.90
2023-01-23T00:42:53.647Z,7.48
2023-01-23T00:45:21.660Z,7.37
2023-01-23T00:47:49.582Z,8.43
2023-01-23T00:50:18.030Z,9.33
2023-01-23T00:52:46.332Z,9.88
2023-01-23T00:55:14.163Z,10.21
2023-01-23T00:57:42.788Z,10.40
2023-01-23T01:00:12.210Z,9.65
2023-01-23T01:02:40.241Z,8.33
2023-01-23T01:05:09.317Z,7.28
2023-01-23T01:07:37.419Z,6.75
2023-01-23T01:10:06.461Z,7.64
2023-01-23T01:12:34.849Z,8.68
2023-01-23T01:15:06.490Z,9.40
2023-01-23T01:17:34.734Z,9.87
2023-01-23T01:20:03.787Z,10.07
2023-01-23T01:22:32.257Z,10.31
2023-01-23T01:25:00.285Z,9.76
2023-01-23T01:27:29.098Z,8.45
2023-01-23T01:29:57.442Z,7.38
2023-01-23T01:32:25.418Z,6.85
2023-01-23T01:34:54.258Z,7.71
2023-01-23T01:37:24.857Z,8.76
2023-01-23T01:39:53.095Z,9.44
2023-01-23T01:42:21.131Z,9.84
2023-01-23T01:44:53.081Z,10.13
2023-01-23T01:47:21.103Z,10.14
2023-01-23T01:49:49.953Z,8.96
2023-01-23T01:52:19.293Z,7.74
2023-01-23T01:54:49.102Z,6.79
2023-01-23T01:57:20.653Z,6.42
2023-01-23T01:59:49.740Z,7.49
2023-01-23T02:02:21.321Z,8.50
2023-01-23T02:04:51.923Z,9.15
2023-01-23T02:07:22.270Z,9.61
2023-01-23T02:09:50.831Z,9.98
2023-01-23T02:12:19.213Z,10.27
2023-01-23T02:14:47.123Z,10.16
2023-01-23T02:17:15.066Z,8.94
2023-01-23T02:19:49.569Z,7.71
2023-01-23T02:22:26.090Z,7.08
2023-01-23T02:24:59.100Z,7.98
2023-01-23T02:27:27.819Z,8.94
2023-01-23T02:29:56.080Z,9.50
2023-01-23T02:32:26.608Z,9.89
2023-01-23T02:34:58.021Z,10.19
2023-01-23T02:37:29.511Z,10.12
2023-01-23T02:39:58.263Z,8.88
2023-01-23T02:42:26.784Z,7.65
2023-01-23T02:44:56.560Z,6.97
2023-01-23T02:47:24.977Z,7.68
2023-01-23T02:49:56.835Z,8.57
2023-01-23T02:52:25.174Z,9.63
2023-01-23T02:54:53.377Z,9.66
2023-01-23T02:57:21.371Z,7.93
2023-01-23T03:00:08.320Z,6.98
2023-01-23T03:02:37.761Z,7.81
2023-01-23T03:05:06.827Z,8.70
2023-01-23T03:07:35.573Z,9.10
2023-01-23T03:10:05.453Z,9.46
2023-01-23T03:12:33.842Z,9.46
2023-01-23T03:15:02.518Z,9.86
2023-01-23T03:17:30.393Z,8.95
2023-01-23T03:19:59.173Z,7.63
2023-01-23T03:22:27.686Z,7.96
2023-01-23T03:24:57.276Z,8.72
2023-01-23T03:27:26.162Z,9.17
2023-01-23T03:30:16.570Z,9.56
2023-01-23T03:32:45.045Z,9.78
2023-01-23T03:35:16.235Z,10.04
2023-01-23T03:37:44.860Z,10.25
2023-01-23T03:40:35.154Z,10.02
2023-01-23T03:43:03.730Z,8.52
2023-01-23T03:45:33.493Z,7.39
2023-01-23T03:48:01.405Z,6.84
2023-01-23T03:50:31.358Z,7.64
2023-01-23T03:53:00.132Z,8.47
2023-01-23T03:55:28.399Z,8.96
2023-01-23T03:57:56.720Z,9.32
2023-01-23T04:00:27.705Z,9.49
2023-01-23T04:03:01.983Z,9.67
2023-01-23T04:05:30.271Z,9.93
2023-01-23T04:07:58.575Z,10.12
2023-01-23T04:10:27.353Z,10.19
2023-01-23T04:12:58.194Z,10.23
2023-01-23T04:15:26.770Z,10.31
2023-01-23T04:17:56.378Z,10.20
2023-01-23T04:20:25.679Z,8.96
2023-01-23T04:22:54.326Z,7.70
2023-01-23T04:25:22.948Z,7.03
2023-01-23T04:27:51.292Z,7.81
2023-01-23T04:30:19.706Z,8.87
2023-01-23T04:32:48.225Z,9.51
2023-01-23T04:35:17.070Z,9.94
2023-01-23T04:37:45.345Z,10.23
2023-01-23T04:40:13.824Z,10.48
2023-01-23T04:42:52.870Z,10.44
2023-01-23T04:45:42.064Z,9.10
2023-01-23T04:48:26.574Z,7.79
2023-01-23T04:50:55.071Z,7.15
2023-01-23T04:53:23.134Z,7.91
2023-01-23T04:55:57.853Z,8.84
2023-01-23T04:58:26.136Z,9.44
2023-01-23T05:01:02.438Z,9.66
2023-01-23T05:03:34.354Z,9.77
2023-01-23T05:06:02.293Z,9.91
2023-01-23T05:08:30.815Z,10.03
2023-01-23T05:11:12.905Z,10.27
2023-01-23T05:13:41.694Z,9.70
2023-01-23T05:16:10.164Z,8.25
2023-01-23T05:18:58.772Z,7.30
2023-01-23T05:21:28.215Z,8.03
2023-01-23T05:23:56.405Z,8.84
2023-01-23T05:26:24.779Z,9.37
2023-01-23T05:28:53.465Z,9.65
2023-01-23T05:31:21.579Z,9.80
2023-01-23T05:34:08.921Z,10.00
2023-01-23T05:36:40.847Z,10.14
2023-01-23T05:39:09.205Z,10.17
2023-01-23T05:41:38.592Z,10.27
2023-01-23T05:44:38.731Z,10.42
2023-01-23T05:47:12.768Z,9.81
2023-01-23T05:49:41.627Z,8.42
2023-01-23T05:52:09.409Z,7.32
2023-01-23T05:54:38.890Z,6.80
2023-01-23T05:57:08.666Z,7.72
2023-01-23T06:00:16.322Z,8.96
2023-01-23T06:02:49.308Z,9.52
2023-01-23T06:05:46.656Z,9.84
2023-01-23T06:08:18.410Z,10.08
2023-01-23T06:10:58.348Z,10.23
2023-01-23T06:13:41.857Z,10.38
2023-01-23T06:16:13.542Z,10.42
2023-01-23T06:18:41.873Z,10.60
2023-01-23T06:21:10.357Z,9.89
2023-01-23T06:23:48.563Z,8.34
2023-01-23T06:26:16.999Z,8.18
2023-01-23T06:29:03.662Z,8.96
2023-01-23T06:31:56.526Z,9.58
2023-01-23T06:34:28.835Z,9.90
2023-01-23T06:37:03.842Z,10.19
2023-01-23T06:39:42.424Z,9.66
2023-01-23T06:42:10.634Z,8.25
2023-01-23T06:44:45.422Z,7.36
2023-01-23T06:47:19.058Z,8.03
2023-01-23T06:50:12.269Z,9.18
2023-01-23T06:52:42.044Z,9.38
2023-01-23T06:55:11.930Z,9.18
2023-01-23T06:57:42.003Z,9.35
2023-01-23T07:00:14.607Z,9.73
2023-01-23T07:02:45.729Z,9.96
2023-01-23T07:05:14.651Z,9.88
2023-01-23T07:07:46.226Z,9.96
2023-01-23T07:10:14.248Z,9.99
2023-01-23T07:12:42.492Z,10.06
2023-01-23T07:15:12.047Z,9.34
2023-01-23T07:17:41.475Z,8.01
2023-01-23T07:20:11.105Z,8.14
2023-01-23T07:22:44.685Z,8.86
2023-01-23T07:25:12.865Z,8.92
2023-01-23T07:27:40.629Z,9.31
2023-01-23T07:30:10.243Z,9.38
2023-01-23T07:32:38.308Z,9.53
2023-01-23T07:35:07.807Z,9.85
2023-01-23T07:37:36.290Z,10.03
2023-01-23T07:40:05.231Z,9.86
2023-01-23T07:42:33.346Z,9.91
2023-01-23T07:45:01.604Z,10.17
2023-01-23T07:47:29.777Z,9.81
2023-01-23T07:49:57.664Z,9.82
2023-01-23T07:52:26.112Z,10.09
2023-01-23T07:54:54.065Z,10.33
2023-01-23T07:57:22.082Z,9.99
2023-01-23T07:59:50.111Z,8.68
2023-01-23T08:02:18.154Z,7.77
2023-01-23T08:04:46.404Z,8.26
2023-01-23T08:07:14.488Z,9.00
2023-01-23T08:09:42.289Z,9.49
2023-01-23T08:12:12.687Z,9.46
2023-01-23T08:14:41.248Z,9.54
2023-01-23T08:17:09.281Z,9.67
2023-01-23T08:19:37.087Z,9.82
2023-01-23T08:22:05.570Z,9.97
2023-01-23T08:24:33.623Z,9.82
2023-01-23T08:27:01.358Z,9.90
2023-01-23T08:29:31.132Z,10.18
2023-01-23T08:31:59.178Z,10.50
2023-01-23T08:34:27.127Z,9.76
2023-01-23T08:36:55.116Z,8.33
2023-01-23T08:39:23.993Z,8.35
2023-01-23T08:41:51.856Z,8.84
2023-01-23T08:44:20.290Z,9.33
2023-01-23T08:46:48.100Z,9.41
2023-01-23T08:49:19.016Z,9.67
2023-01-23T08:51:47.188Z,9.57
2023-01-23T08:54:15.518Z,9.94
2023-01-23T08:56:43.462Z,10.15
2023-01-23T08:59:11.697Z,10.12
2023-01-23T09:01:39.636Z,10.13
2023-01-23T09:04:07.985Z,10.25
2023-01-23T09:06:36.629Z,10.18
2023-01-23T09:09:04.968Z,10.20
2023-01-23T09:11:33.247Z,10.33
2023-01-23T09:14:01.705Z,9.46
2023-01-23T09:16:29.708Z,8.22
2023-01-23T09:18:57.662Z,7.82
2023-01-23T09:21:26.151Z,8.87
2023-01-23T09:23:54.191Z,9.70
2023-01-23T09:26:22.066Z,10.16
2023-01-23T09:28:50.207Z,10.31
2023-01-23T09:31:18.340Z,9.25
2023-01-23T09:33:47.904Z,8.18
2023-01-23T09:36:16.385Z,8.68
2023-01-23T09:38:44.345Z,9.40
2023-01-23T09:41:15.966Z,10.02
2023-01-23T09:43:48.137Z,10.39
2023-01-23T09:46:20.193Z,10.42
2023-01-23T09:48:53.521Z,10.64
2023-01-23T09:51:25.329Z,10.94
2023-01-23T09:53:55.817Z,10.89
2023-01-23T09:56:36.245Z,9.71
2023-01-23T09:59:08.651Z,8.77
2023-01-23T10:01:37.138Z,9.53
2023-01-23T10:04:05.305Z,10.32
2023-01-23T10:06:50.381Z,10.66
2023-01-23T10:09:27.865Z,10.84
2023-01-23T10:12:00.056Z,11.01
2023-01-23T10:14:38.738Z,10.85
2023-01-23T10:17:10.628Z,9.50
2023-01-23T10:19:46.067Z,8.49
2023-01-23T10:22:23.967Z,9.12
2023-01-23T10:24:53.701Z,9.82
2023-01-23T10:27:22.457Z,10.33
2023-01-23T10:29:52.601Z,10.61
2023-01-23T10:32:25.510Z,10.78
2023-01-23T10:34:56.936Z,10.84
2023-01-23T10:37:35.797Z,10.94
2023-01-23T10:40:07.477Z,11.09
2023-01-23T10:42:36.576Z,10.94
2023-01-23T10:45:06.128Z,9.78
2023-01-23T10:47:37.152Z,8.87
2023-01-23T10:50:07.886Z,9.30
2023-01-23T10:52:37.030Z,10.01
2023-01-23T10:55:06.280Z,10.39
2023-01-23T10:57:44.077Z,10.55
2023-01-23T11:00:20.202Z,10.57
2023-01-23T11:02:49.566Z,10.95
2023-01-23T11:05:46.614Z,10.22
2023-01-23T11:08:25.286Z,8.52
2023-01-23T11:10:53.155Z,8.83
2023-01-23T11:13:28.897Z,9.62
2023-01-23T11:15:56.782Z,10.16
2023-01-23T11:18:30.320Z,10.58
2023-01-23T11:20:58.849Z,10.92
2023-01-23T11:23:27.420Z,10.82
2023-01-23T11:25:55.516Z,10.90
2023-01-23T11:28:26.617Z,10.97
2023-01-23T11:31:11.490Z,11.14
2023-01-23T11:33:43.851Z,10.89
2023-01-23T11:36:23.105Z,9.60
2023-01-23T11:38:54.414Z,8.77
2023-01-23T11:41:24.239Z,9.53
2023-01-23T11:43:52.952Z,10.46
2023-01-23T11:46:29.456Z,10.87
2023-01-23T11:49:05.975Z,11.11
2023-01-23T11:51:37.490Z,11.22
2023-01-23T11:54:12.820Z,10.11
2023-01-23T11:56:47.577Z,8.90
2023-01-23T11:59:30.629Z,8.44
2023-01-23T12:02:11.483Z,9.14
2023-01-23T12:04:56.735Z,9.55
2023-01-23T12:07:24.918Z,9.98
2023-01-23T12:09:56.720Z,10.19
2023-01-23T12:12:30.204Z,10.12
2023-01-23T12:15:03.182Z,10.27
2023-01-23T12:17:36.600Z,10.59
2023-01-23T12:20:24.820Z,10.78
2023-01-23T12:23:10.025Z,10.93
2023-01-23T12:25:39.514Z,10.18
2023-01-23T12:28:18.070Z,8.87
2023-01-23T12:31:09.512Z,9.02
2023-01-23T12:33:42.722Z,9.73
2023-01-23T12:36:19.310Z,10.15
2023-01-23T12:38:51.850Z,10.42
2023-01-23T12:41:24.821Z,10.66
2023-01-23T12:43:57.452Z,10.96
2023-01-23T12:46:27.120Z,10.73
2023-01-23T12:48:58.501Z,10.66
2023-01-23T12:51:31.457Z,10.73
2023-01-23T12:54:00.578Z,10.68
2023-01-23T12:56:30.527Z,10.45
2023-01-23T12:59:04.602Z,10.76
2023-01-23T13:01:42.539Z,11.01
2023-01-23T13:04:15.624Z,10.69
2023-01-23T13:06:53.101Z,10.41
2023-01-23T13:09:23.824Z,10.56
2023-01-23T13:11:56.820Z,10.49
2023-01-23T13:14:31.484Z,10.86
2023-01-23T13:17:03.833Z,10.80
2023-01-23T13:19:50.921Z,10.61
2023-01-23T13:22:29.073Z,10.55
2023-01-23T13:25:12.193Z,10.79
2023-01-23T13:27:41.798Z,10.66
2023-01-23T13:30:31.543Z,10.31
2023-01-23T13:33:01.179Z,10.44
2023-01-23T13:35:48.977Z,10.51
2023-01-23T13:38:29.445Z,10.74
2023-01-23T13:41:17.159Z,10.53
2023-01-23T13:43:52.447Z,10.60
2023-01-23T13:46:24.672Z,10.53
2023-01-23T14:23:37.491Z,10.44
2023-01-23T14:26:08.380Z,9.04
2023-01-23T14:28:36.876Z,8.12
2023-01-23T14:31:06.236Z,8.93
2023-01-23T14:33:42.295Z,9.60
2023-01-23T14:36:14.693Z,9.48
2023-01-23T14:38:43.953Z,9.93
2023-01-23T14:41:13.075Z,9.61
2023-01-23T14:43:41.843Z,9.52
2023-01-23T14:46:15.020Z,9.66
2023-01-23T14:48:44.335Z,9.88
2023-01-23T14:51:19.773Z,10.27
2023-01-23T14:53:53.691Z,10.26
2023-01-23T14:56:23.129Z,10.40
2023-01-23T14:58:51.367Z,10.37
2023-01-23T15:01:20.119Z,10.67
2023-01-23T15:03:56.417Z,10.77
2023-01-23T15:06:24.683Z,10.94
2023-01-23T15:08:52.754Z,10.63
2023-01-23T15:11:26.206Z,10.33
2023-01-23T15:13:55.341Z,10.34
2023-01-23T15:16:24.851Z,10.44
2023-01-23T15:18:55.629Z,10.46
2023-01-23T15:21:28.570Z,10.41
2023-01-23T15:24:07.798Z,10.28
2023-01-23T15:26:36.656Z,10.39
2023-01-23T15:29:16.860Z,10.38
2023-01-23T15:31:46.501Z,10.15
2023-01-23T15:34:24.463Z,10.18
2023-01-23T15:36:54.830Z,10.20
2023-01-23T15:39:24.729Z,10.33
2023-01-23T15:41:54.711Z,10.38
2023-01-23T15:44:23.759Z,10.37
2023-01-23T15:46:51.643Z,10.42
2023-01-23T15:49:25.769Z,10.25
2023-01-23T15:51:58.074Z,10.33
2023-01-23T15:54:28.678Z,10.20
2023-01-23T15:57:07.150Z,10.21
2023-01-23T15:59:36.799Z,10.46
2023-01-23T16:02:05.871Z,10.61
2023-01-23T16:04:33.900Z,10.47
2023-01-23T16:07:06.305Z,10.53
2023-01-23T16:21:47.685Z,10.02
2023-01-23T16:24:23.901Z,8.83
2023-01-23T16:26:52.344Z,8.97
2023-01-23T16:29:27.378Z,9.28
2023-01-23T16:31:57.390Z,9.71
2023-01-23T16:34:25.787Z,10.20
2023-01-23T16:36:54.485Z,10.35
2023-01-23T16:39:24.191Z,10.14
2023-01-23T16:41:53.983Z,10.20
2023-01-23T16:44:23.578Z,10.58
2023-01-23T16:46:52.668Z,10.51
2023-01-23T16:49:21.168Z,10.61
2023-01-23T16:51:51.067Z,10.45
2023-01-23T16:54:20.678Z,10.60
2023-01-23T16:56:50.398Z,10.64
2023-01-23T16:59:19.905Z,10.56
2023-01-23T17:01:49.862Z,10.62
2023-01-23T17:04:19.431Z,10.40
2023-01-23T17:06:47.339Z,10.14
2023-01-23T17:09:17.010Z,10.12
2023-01-23T17:11:47.435Z,10.22
2023-01-23T17:14:18.145Z,9.99
2023-01-23T17:16:47.449Z,10.25
2023-01-23T17:19:21.754Z,10.04
2023-01-23T17:21:51.277Z,9.51
2023-01-23T17:24:19.647Z,9.44
2023-01-23T17:26:47.716Z,9.62
2023-01-23T17:29:16.189Z,9.58
2023-01-23T17:31:44.014Z,9.64
2023-01-23T17:34:18.139Z,9.69
2023-01-23T17:36:46.453Z,9.67
2023-01-23T17:39:14.316Z,9.73
2023-01-23T17:41:42.587Z,9.30
2023-01-23T17:44:11.129Z,9.42
2023-01-23T17:46:39.928Z,9.58
2023-01-23T17:49:21.383Z,9.60
2023-01-23T17:51:50.053Z,9.73
2023-01-23T17:54:18.812Z,9.64
2023-01-23T17:56:46.690Z,9.62
2023-01-23T17:59:14.973Z,9.35
2023-01-23T18:01:42.856Z,9.70
2023-01-23T18:04:14.517Z,9.83
2023-01-23T18:06:43.160Z,9.58
2023-01-23T18:09:11.022Z,9.43
2023-01-23T18:11:40.477Z,9.17
2023-01-23T18:14:15.591Z,9.03
2023-01-23T18:16:45.509Z,9.28
2023-01-23T18:19:16.533Z,9.35
2023-01-23T18:21:45.106Z,9.11
2023-01-23T18:24:17.645Z,9.02
2023-01-23T18:26:48.020Z,9.11
2023-01-23T18:29:25.087Z,9.34
2023-01-23T18:32:09.681Z,9.37
2023-01-23T18:34:43.411Z,9.37
2023-01-23T18:37:15.989Z,9.46
2023-01-23T18:40:00.735Z,9.62
2023-01-23T18:42:32.682Z,9.79
2023-01-23T18:45:02.974Z,9.81
2023-01-23T18:47:32.042Z,9.56
2023-01-23T18:50:00.856Z,9.56
2023-01-23T18:52:35.339Z,9.54
2023-01-23T18:55:07.440Z,9.68
2023-01-23T18:57:46.825Z,9.80
2023-01-23T19:00:19.360Z,9.93
2023-01-23T19:02:50.085Z,10.17
2023-01-23T19:05:25.742Z,10.29
2023-01-23T19:07:54.248Z,10.04
2023-01-23T19:10:23.984Z,9.90
2023-01-23T19:12:58.790Z,9.87
2023-01-23T19:15:29.177Z,9.93
2023-01-23T19:18:02.979Z,10.00
2023-01-23T19:20:35.565Z,9.93
2023-01-23T19:23:11.516Z,9.84
2023-01-23T19:25:40.100Z,9.84
2023-01-23T19:28:10.061Z,9.87
2023-01-23T19:30:39.517Z,10.01
2023-01-23T19:33:09.656Z,10.06
2023-01-23T19:35:37.718Z,9.76
2023-01-23T19:38:05.628Z,9.69
2023-01-23T19:40:33.497Z,9.71
2023-01-23T19:43:13.783Z,9.93
2023-01-23T19:45:43.197Z,9.59
2023-01-23T19:48:11.882Z,9.52
2023-01-23T19:50:40.264Z,9.52
2023-01-23T19:53:09.364Z,9.39
2023-01-23T19:55:37.771Z,9.61
2023-01-23T19:58:06.533Z,9.48
2023-01-23T20:00:35.472Z,9.54
2023-01-23T20:03:04.723Z,9.67
2023-01-23T20:05:32.785Z,9.60
2023-01-23T20:08:01.059Z,9.46
2023-01-23T20:10:29.190Z,9.47
2023-01-23T20:12:57.131Z,9.26
2023-01-23T20:15:25.667Z,9.37
2023-01-23T20:17:54.486Z,9.55
2023-01-23T20:20:22.798Z,9.30
2023-01-23T20:22:51.221Z,9.55
2023-01-23T20:25:19.699Z,9.94
2023-01-23T20:27:47.838Z,9.87
2023-01-23T20:30:16.838Z,9.75
2023-01-23T20:32:44.948Z,9.77
2023-01-23T20:35:12.780Z,9.77
2023-01-23T20:37:40.943Z,9.57
2023-01-23T20:40:10.994Z,9.36
2023-01-23T20:42:39.066Z,9.18
2023-01-23T20:45:08.157Z,9.24
2023-01-23T20:47:37.069Z,9.31
2023-01-23T20:50:05.568Z,9.74
2023-01-23T20:52:52.143Z,9.79
2023-01-23T20:55:20.517Z,9.69
2023-01-23T20:58:07.702Z,9.84
2023-01-23T21:00:35.806Z,9.90
2023-01-23T21:03:04.456Z,9.70
2023-01-23T21:05:32.558Z,9.55
2023-01-23T21:08:00.734Z,9.53
2023-01-23T21:10:28.839Z,9.60
2023-01-23T21:12:57.083Z,9.55
2023-01-23T21:15:25.049Z,9.61
2023-01-23T21:17:53.119Z,9.79
2023-01-23T21:20:20.838Z,9.95
2023-01-23T21:22:48.901Z,10.06
2023-01-23T21:25:16.912Z,9.92
2023-01-23T21:27:44.940Z,10.00
2023-01-23T21:30:13.375Z,10.00
2023-01-23T21:32:41.965Z,10.29
2023-01-23T21:35:10.169Z,10.43
2023-01-23T21:37:38.419Z,10.47
2023-01-23T21:40:08.009Z,10.32
2023-01-23T21:42:35.929Z,10.36
2023-01-23T21:45:04.158Z,9.98
2023-01-23T21:47:32.219Z,10.07
2023-01-23T21:50:00.199Z,10.13
2023-01-23T21:52:29.022Z,10.15
2023-01-23T21:54:57.193Z,10.16
2023-01-23T21:57:24.974Z,10.32
2023-01-23T22:00:07.568Z,10.37
2023-01-23T22:02:41.978Z,10.53
2023-01-23T22:05:10.497Z,10.66
2023-01-23T22:07:38.227Z,9.90
2023-01-23T22:10:07.710Z,8.82
2023-01-23T22:12:35.597Z,9.02
2023-01-23T22:15:03.801Z,9.28
2023-01-23T22:17:31.772Z,9.52
2023-01-23T22:19:59.896Z,9.83
2023-01-23T22:22:27.934Z,9.95
2023-01-23T22:24:56.872Z,9.95
2023-01-23T22:27:24.609Z,9.93
2023-01-23T22:29:52.544Z,9.98
2023-01-23T22:32:20.597Z,10.19
2023-01-23T22:34:49.020Z,10.41
2023-01-23T22:37:16.789Z,10.57
2023-01-23T22:39:44.788Z,10.53
2023-01-23T22:42:12.760Z,10.48
2023-01-23T22:44:40.779Z,10.46
2023-01-23T22:47:08.747Z,10.76
2023-01-23T22:49:37.463Z,9.86
2023-01-23T22:52:05.937Z,8.78
2023-01-23T22:54:35.377Z,9.20
2023-01-23T22:57:03.225Z,9.74
2023-01-23T22:59:30.964Z,10.01
2023-01-23T23:01:58.999Z,10.26
2023-01-23T23:04:26.807Z,10.33
2023-01-23T23:06:54.855Z,10.44
2023-01-23T23:09:22.860Z,10.42
2023-01-23T23:11:51.411Z,10.46
2023-01-23T23:14:19.237Z,10.55
2023-01-23T23:16:47.258Z,10.36
2023-01-23T23:19:15.356Z,10.45
2023-01-23T23:21:43.453Z,10.30
2023-01-23T23:24:12.580Z,9.87
2023-01-23T23:26:40.793Z,10.20
2023-01-23T23:29:08.552Z,10.35
2023-01-23T23:31:36.836Z,8.95
2023-01-23T23:34:04.838Z,8.77
2023-01-23T23:36:32.806Z,8.94
2023-01-23T23:39:01.215Z,9.22
2023-01-23T23:41:29.300Z,9.79
2023-01-23T23:43:57.244Z,9.86
2023-01-23T23:46:26.045Z,9.85
2023-01-23T23:48:53.997Z,9.73
2023-01-23T23:51:22.951Z,10.01
2023-01-23T23:53:51.313Z,10.29
2023-01-23T23:56:20.909Z,9.83
2023-01-23T23:58:48.660Z,9.87
